sensor_id;sensor_type;location;lat;lon;timestamp;P1;durP1;ratioP1;P2;durP2;ratioP2
75772;SDS011;64381;0.000;0.000;2022-10-31T00:00:03;9.93;;;4.20;;
75772;SDS011;64381;0.000;0.000;2022-10-31T00:02:31;8.38;;;4.20;;
75772;SDS011;64381;0.000;0.000;2022-10-31T00:04:56;8.03;;;4.00;;
75772;SDS011;64381;0.000;0.000;2022-10-31T00:07:21;8.70;;;4.40;;
75772;SDS011;64381;0.000;0.000;2022-10-31T00:09:46;7.63;;;3.93;;
75772;SDS011;64381;0.000;0.000;2022-10-31T00:12:11;7.33;;;3.87;;
75772;SDS011;64381;0.000;0.000;2022-10-31T00:14:37;7.70;;;4.17;;
75772;SDS011;64381;0.000;0.000;2022-10-31T00:17:02;8.73;;;4.70;;
75772;SDS011;64381;0.000;0.000;2022-10-31T00:19:27;7.40;;;4.43;;
75772;SDS011;64381;0.000;0.000;2022-10-31T00:21:52;9.23;;;4.60;;
75772;SDS011;64381;0.000;0.000;2022-10-31T00:24:17;7.13;;;3.87;;
75772;SDS011;64381;0.000;0.000;2022-10-31T00:26:43;8.70;;;4.53;;
75772;SDS011;64381;0.000;0.000;2022-10-31T00:29:08;9.33;;;4.20;;
75772;SDS011;64381;0.000;0.000;2022-10-31T00:31:33;7.83;;;4.00;;
75772;SDS011;64381;0.000;0.000;2022-10-31T00:33:58;7.70;;;3.93;;
75772;SDS011;64381;0.000;0.000;2022-10-31T00:36:24;9.87;;;4.40;;
75772;SDS011;64381;0.000;0.000;2022-10-31T00:38:49;7.73;;;4.40;;
75772;SDS011;64381;0.000;0.000;2022-10-31T00:41:15;7.83;;;4.43;;
75772;SDS011;64381;0.000;0.000;2022-10-31T00:43:42;8.82;;;4.18;;
75772;SDS011;64381;0.000;0.000;2022-10-31T00:46:08;8.38;;;4.20;;
75772;SDS011;64381;0.000;0.000;2022-10-31T00:48:33;8.63;;;4.30;;
75772;SDS011;64381;0.000;0.000;2022-10-31T00:50:58;7.30;;;4.13;;
75772;SDS011;64381;0.000;0.000;2022-10-31T00:53:24;6.85;;;3.97;;
75772;SDS011;64381;0.000;0.000;2022-10-31T00:55:49;9.63;;;4.30;;
75772;SDS011;64381;0.000;0.000;2022-10-31T00:58:15;8.93;;;4.30;;
75772;SDS011;64381;0.000;0.000;2022-10-31T01:00:40;8.60;;;4.03;;
75772;SDS011;64381;0.000;0.000;2022-10-31T01:03:05;8.23;;;3.97;;
75772;SDS011;64381;0.000;0.000;2022-10-31T01:05:31;8.23;;;4.30;;
75772;SDS011;64381;0.000;0.000;2022-10-31T01:07:56;8.50;;;4.30;;
75772;SDS011;64381;0.000;0.000;2022-10-31T01:10:22;8.33;;;4.13;;
75772;SDS011;64381;0.000;0.000;2022-10-31T01:12:48;9.93;;;4.23;;
75772;SDS011;64381;0.000;0.000;2022-10-31T01:15:14;8.45;;;4.50;;
75772;SDS011;64381;0.000;0.000;2022-10-31T01:17:42;7.35;;;4.05;;
75772;SDS011;64381;0.000;0.000;2022-10-31T01:20:08;7.67;;;4.20;;
75772;SDS011;64381;0.000;0.000;2022-10-31T01:22:34;7.80;;;4.28;;
75772;SDS011;64381;0.000;0.000;2022-10-31T01:25:00;8.33;;;4.37;;
75772;SDS011;64381;0.000;0.000;2022-10-31T01:27:25;8.10;;;4.33;;
75772;SDS011;64381;0.000;0.000;2022-10-31T01:29:50;8.07;;;3.90;;
75772;SDS011;64381;0.000;0.000;2022-10-31T01:32:16;7.97;;;4.57;;
75772;SDS011;64381;0.000;0.000;2022-10-31T01:34:41;9.03;;;4.37;;
75772;SDS011;64381;0.000;0.000;2022-10-31T01:37:06;7.40;;;4.03;;
75772;SDS011;64381;0.000;0.000;2022-10-31T01:39:31;8.17;;;4.07;;
75772;SDS011;64381;0.000;0.000;2022-10-31T01:41:57;7.27;;;4.07;;
75772;SDS011;64381;0.000;0.000;2022-10-31T01:49:24;6.97;;;4.43;;
75772;SDS011;64381;0.000;0.000;2022-10-31T01:51:52;7.72;;;4.38;;
75772;SDS011;64381;0.000;0.000;2022-10-31T01:54:21;7.57;;;4.57;;
75772;SDS011;64381;0.000;0.000;2022-10-31T01:56:50;8.77;;;4.50;;
75772;SDS011;64381;0.000;0.000;2022-10-31T01:59:20;8.18;;;4.32;;
75772;SDS011;64381;0.000;0.000;2022-10-31T02:01:51;8.50;;;4.85;;
75772;SDS011;64381;0.000;0.000;2022-10-31T02:04:17;7.25;;;4.20;;
75772;SDS011;64381;0.000;0.000;2022-10-31T02:09:12;7.18;;;4.30;;
75772;SDS011;64381;0.000;0.000;2022-10-31T02:11:38;9.70;;;4.70;;
75772;SDS011;64381;0.000;0.000;2022-10-31T02:14:05;7.47;;;4.25;;
75772;SDS011;64381;0.000;0.000;2022-10-31T02:16:30;7.77;;;4.47;;
75772;SDS011;64381;0.000;0.000;2022-10-31T02:18:55;8.40;;;4.33;;
75772;SDS011;64381;0.000;0.000;2022-10-31T02:21:23;8.37;;;4.47;;
75772;SDS011;64381;0.000;0.000;2022-10-31T02:24:19;7.53;;;4.07;;
75772;SDS011;64381;0.000;0.000;2022-10-31T02:27:16;8.05;;;4.57;;
75772;SDS011;64381;0.000;0.000;2022-10-31T02:29:48;8.02;;;4.18;;
75772;SDS011;64381;0.000;0.000;2022-10-31T02:32:27;8.55;;;4.38;;
75772;SDS011;64381;0.000;0.000;2022-10-31T02:37:59;7.60;;;4.15;;
75772;SDS011;64381;0.000;0.000;2022-10-31T02:41:04;9.40;;;4.30;;
75772;SDS011;64381;0.000;0.000;2022-10-31T02:46:43;8.63;;;4.53;;
75772;SDS011;64381;0.000;0.000;2022-10-31T02:51:49;7.65;;;4.10;;
75772;SDS011;64381;0.000;0.000;2022-10-31T02:54:17;8.07;;;4.45;;
75772;SDS011;64381;0.000;0.000;2022-10-31T02:56:50;7.55;;;4.20;;
75772;SDS011;64381;0.000;0.000;2022-10-31T02:59:19;8.32;;;4.40;;
75772;SDS011;64381;0.000;0.000;2022-10-31T03:02:02;9.50;;;4.20;;
75772;SDS011;64381;0.000;0.000;2022-10-31T03:04:39;7.97;;;4.10;;
75772;SDS011;64381;0.000;0.000;2022-10-31T03:07:53;7.90;;;4.35;;
75772;SDS011;64381;0.000;0.000;2022-10-31T03:10:37;7.75;;;4.05;;
75772;SDS011;64381;0.000;0.000;2022-10-31T03:13:09;8.15;;;3.92;;
75772;SDS011;64381;0.000;0.000;2022-10-31T03:15:39;7.80;;;3.90;;
75772;SDS011;64381;0.000;0.000;2022-10-31T03:18:21;9.05;;;4.63;;
75772;SDS011;64381;0.000;0.000;2022-10-31T03:20:55;7.57;;;4.07;;
75772;SDS011;64381;0.000;0.000;2022-10-31T03:23:25;7.13;;;4.03;;
75772;SDS011;64381;0.000;0.000;2022-10-31T03:25:52;6.50;;;4.03;;
75772;SDS011;64381;0.000;0.000;2022-10-31T03:28:21;8.43;;;4.37;;
75772;SDS011;64381;0.000;0.000;2022-10-31T03:30:52;7.45;;;4.20;;
75772;SDS011;64381;0.000;0.000;2022-10-31T03:33:21;7.85;;;4.25;;
75772;SDS011;64381;0.000;0.000;2022-10-31T03:35:52;7.10;;;4.22;;
75772;SDS011;64381;0.000;0.000;2022-10-31T03:38:19;7.90;;;4.10;;
75772;SDS011;64381;0.000;0.000;2022-10-31T03:40:46;7.27;;;3.93;;
75772;SDS011;64381;0.000;0.000;2022-10-31T03:43:17;7.30;;;3.88;;
75772;SDS011;64381;0.000;0.000;2022-10-31T03:45:46;8.10;;;4.10;;
75772;SDS011;64381;0.000;0.000;2022-10-31T03:48:13;7.03;;;4.22;;
75772;SDS011;64381;0.000;0.000;2022-10-31T03:50:43;7.80;;;3.95;;
75772;SDS011;64381;0.000;0.000;2022-10-31T03:53:16;8.37;;;4.00;;
75772;SDS011;64381;0.000;0.000;2022-10-31T03:55:50;6.72;;;3.92;;
75772;SDS011;64381;0.000;0.000;2022-10-31T03:58:27;7.47;;;3.80;;
75772;SDS011;64381;0.000;0.000;2022-10-31T04:00:59;6.43;;;3.85;;
75772;SDS011;64381;0.000;0.000;2022-10-31T04:03:28;7.10;;;4.15;;
75772;SDS011;64381;0.000;0.000;2022-10-31T04:05:58;7.63;;;4.00;;
75772;SDS011;64381;0.000;0.000;2022-10-31T04:08:28;7.55;;;4.05;;
75772;SDS011;64381;0.000;0.000;2022-10-31T04:10:57;7.05;;;4.07;;
75772;SDS011;64381;0.000;0.000;2022-10-31T04:13:28;7.00;;;4.05;;
75772;SDS011;64381;0.000;0.000;2022-10-31T04:15:56;8.10;;;3.90;;
75772;SDS011;64381;0.000;0.000;2022-10-31T04:18:23;7.03;;;4.03;;
75772;SDS011;64381;0.000;0.000;2022-10-31T04:20:49;7.88;;;4.10;;
75772;SDS011;64381;0.000;0.000;2022-10-31T04:23:24;6.63;;;3.42;;
75772;SDS011;64381;0.000;0.000;2022-10-31T04:25:50;7.57;;;4.10;;
75772;SDS011;64381;0.000;0.000;2022-10-31T04:28:16;7.38;;;4.00;;
75772;SDS011;64381;0.000;0.000;2022-10-31T04:30:41;7.97;;;4.00;;
75772;SDS011;64381;0.000;0.000;2022-10-31T04:33:06;7.13;;;3.97;;
75772;SDS011;64381;0.000;0.000;2022-10-31T04:35:31;6.63;;;3.63;;
75772;SDS011;64381;0.000;0.000;2022-10-31T04:37:57;7.17;;;4.20;;
75772;SDS011;64381;0.000;0.000;2022-10-31T04:40:22;7.57;;;4.00;;
75772;SDS011;64381;0.000;0.000;2022-10-31T04:42:47;7.47;;;3.80;;
75772;SDS011;64381;0.000;0.000;2022-10-31T04:45:12;8.60;;;4.20;;
75772;SDS011;64381;0.000;0.000;2022-10-31T04:47:38;6.90;;;3.87;;
75772;SDS011;64381;0.000;0.000;2022-10-31T04:50:03;6.63;;;3.73;;
75772;SDS011;64381;0.000;0.000;2022-10-31T04:52:29;7.20;;;3.90;;
75772;SDS011;64381;0.000;0.000;2022-10-31T04:54:54;7.27;;;3.80;;
75772;SDS011;64381;0.000;0.000;2022-10-31T04:57:19;7.43;;;3.53;;
75772;SDS011;64381;0.000;0.000;2022-10-31T04:59:45;7.37;;;4.00;;
75772;SDS011;64381;0.000;0.000;2022-10-31T05:02:10;6.70;;;3.83;;
75772;SDS011;64381;0.000;0.000;2022-10-31T05:04:35;5.97;;;3.63;;
75772;SDS011;64381;0.000;0.000;2022-10-31T05:07:00;7.33;;;4.03;;
75772;SDS011;64381;0.000;0.000;2022-10-31T05:09:26;5.67;;;3.43;;
75772;SDS011;64381;0.000;0.000;2022-10-31T05:11:51;7.77;;;3.70;;
75772;SDS011;64381;0.000;0.000;2022-10-31T05:14:16;7.57;;;4.00;;
75772;SDS011;64381;0.000;0.000;2022-10-31T05:16:41;6.17;;;3.83;;
75772;SDS011;64381;0.000;0.000;2022-10-31T05:19:06;6.50;;;3.53;;
75772;SDS011;64381;0.000;0.000;2022-10-31T05:21:32;6.70;;;3.83;;
75772;SDS011;64381;0.000;0.000;2022-10-31T05:23:57;6.70;;;4.03;;
75772;SDS011;64381;0.000;0.000;2022-10-31T05:26:22;5.73;;;3.30;;
75772;SDS011;64381;0.000;0.000;2022-10-31T05:28:47;7.17;;;3.80;;
75772;SDS011;64381;0.000;0.000;2022-10-31T05:31:12;6.57;;;3.63;;
75772;SDS011;64381;0.000;0.000;2022-10-31T05:33:38;6.93;;;3.33;;
75772;SDS011;64381;0.000;0.000;2022-10-31T05:36:03;6.80;;;3.60;;
75772;SDS011;64381;0.000;0.000;2022-10-31T05:38:29;7.63;;;3.87;;
75772;SDS011;64381;0.000;0.000;2022-10-31T05:40:54;6.43;;;3.50;;
75772;SDS011;64381;0.000;0.000;2022-10-31T05:43:20;6.85;;;3.80;;
75772;SDS011;64381;0.000;0.000;2022-10-31T05:45:46;7.13;;;3.60;;
75772;SDS011;64381;0.000;0.000;2022-10-31T05:48:11;7.50;;;3.73;;
75772;SDS011;64381;0.000;0.000;2022-10-31T05:50:36;7.10;;;3.50;;
75772;SDS011;64381;0.000;0.000;2022-10-31T05:53:03;6.23;;;3.43;;
75772;SDS011;64381;0.000;0.000;2022-10-31T05:55:29;6.30;;;3.67;;
75772;SDS011;64381;0.000;0.000;2022-10-31T05:57:55;5.68;;;3.40;;
75772;SDS011;64381;0.000;0.000;2022-10-31T06:00:21;7.37;;;3.57;;
75772;SDS011;64381;0.000;0.000;2022-10-31T06:02:48;7.47;;;4.00;;
75772;SDS011;64381;0.000;0.000;2022-10-31T06:05:13;7.18;;;3.58;;
75772;SDS011;64381;0.000;0.000;2022-10-31T06:07:39;7.07;;;3.60;;
75772;SDS011;64381;0.000;0.000;2022-10-31T06:10:05;8.43;;;3.67;;
75772;SDS011;64381;0.000;0.000;2022-10-31T06:12:32;6.85;;;3.55;;
75772;SDS011;64381;0.000;0.000;2022-10-31T06:14:58;6.90;;;3.70;;
75772;SDS011;64381;0.000;0.000;2022-10-31T06:17:23;7.03;;;3.90;;
75772;SDS011;64381;0.000;0.000;2022-10-31T06:19:48;6.97;;;3.37;;
75772;SDS011;64381;0.000;0.000;2022-10-31T06:22:13;7.13;;;3.67;;
75772;SDS011;64381;0.000;0.000;2022-10-31T06:24:39;5.67;;;3.40;;
75772;SDS011;64381;0.000;0.000;2022-10-31T06:27:04;6.97;;;3.47;;
75772;SDS011;64381;0.000;0.000;2022-10-31T06:29:30;6.38;;;3.65;;
75772;SDS011;64381;0.000;0.000;2022-10-31T06:31:55;7.30;;;3.50;;
75772;SDS011;64381;0.000;0.000;2022-10-31T06:34:20;6.33;;;3.80;;
75772;SDS011;64381;0.000;0.000;2022-10-31T06:36:46;8.60;;;3.20;;
75772;SDS011;64381;0.000;0.000;2022-10-31T06:39:11;6.30;;;3.30;;
75772;SDS011;64381;0.000;0.000;2022-10-31T06:41:37;7.10;;;3.60;;
75772;SDS011;64381;0.000;0.000;2022-10-31T06:44:02;6.60;;;3.27;;
75772;SDS011;64381;0.000;0.000;2022-10-31T06:46:27;6.43;;;3.50;;
75772;SDS011;64381;0.000;0.000;2022-10-31T06:48:53;6.77;;;3.40;;
75772;SDS011;64381;0.000;0.000;2022-10-31T06:51:18;6.57;;;3.50;;
75772;SDS011;64381;0.000;0.000;2022-10-31T06:53:43;5.57;;;3.17;;
75772;SDS011;64381;0.000;0.000;2022-10-31T06:56:08;6.13;;;3.47;;
75772;SDS011;64381;0.000;0.000;2022-10-31T06:58:34;5.30;;;3.30;;
75772;SDS011;64381;0.000;0.000;2022-10-31T07:00:59;7.20;;;3.60;;
75772;SDS011;64381;0.000;0.000;2022-10-31T07:03:25;6.60;;;3.20;;
75772;SDS011;64381;0.000;0.000;2022-10-31T07:05:50;7.73;;;3.60;;
75772;SDS011;64381;0.000;0.000;2022-10-31T07:08:16;5.63;;;3.17;;
75772;SDS011;64381;0.000;0.000;2022-10-31T07:10:41;5.97;;;3.57;;
75772;SDS011;64381;0.000;0.000;2022-10-31T07:13:11;7.10;;;3.80;;
75772;SDS011;64381;0.000;0.000;2022-10-31T07:15:38;6.45;;;3.47;;
75772;SDS011;64381;0.000;0.000;2022-10-31T07:18:06;6.13;;;3.33;;
75772;SDS011;64381;0.000;0.000;2022-10-31T07:20:33;5.93;;;3.20;;
75772;SDS011;64381;0.000;0.000;2022-10-31T07:22:59;5.65;;;3.10;;
75772;SDS011;64381;0.000;0.000;2022-10-31T07:25:24;6.30;;;3.30;;
75772;SDS011;64381;0.000;0.000;2022-10-31T07:27:49;6.10;;;3.20;;
75772;SDS011;64381;0.000;0.000;2022-10-31T07:30:15;5.65;;;3.20;;
75772;SDS011;64381;0.000;0.000;2022-10-31T07:32:42;6.63;;;3.07;;
75772;SDS011;64381;0.000;0.000;2022-10-31T07:35:10;5.53;;;3.22;;
75772;SDS011;64381;0.000;0.000;2022-10-31T07:37:36;6.45;;;3.28;;
75772;SDS011;64381;0.000;0.000;2022-10-31T07:40:02;5.70;;;3.20;;
75772;SDS011;64381;0.000;0.000;2022-10-31T07:42:29;5.95;;;3.30;;
75772;SDS011;64381;0.000;0.000;2022-10-31T07:44:59;5.63;;;3.00;;
75772;SDS011;64381;0.000;0.000;2022-10-31T07:47:24;6.67;;;3.40;;
75772;SDS011;64381;0.000;0.000;2022-10-31T07:49:49;6.50;;;3.10;;
75772;SDS011;64381;0.000;0.000;2022-10-31T07:52:14;6.00;;;3.20;;
75772;SDS011;64381;0.000;0.000;2022-10-31T07:54:39;5.80;;;3.30;;
75772;SDS011;64381;0.000;0.000;2022-10-31T07:57:05;16.47;;;4.00;;
75772;SDS011;64381;0.000;0.000;2022-10-31T07:59:30;25.23;;;4.37;;
75772;SDS011;64381;0.000;0.000;2022-10-31T08:01:55;28.03;;;5.00;;
75772;SDS011;64381;0.000;0.000;2022-10-31T08:04:20;38.37;;;5.53;;
75772;SDS011;64381;0.000;0.000;2022-10-31T08:06:45;22.27;;;5.03;;
75772;SDS011;64381;0.000;0.000;2022-10-31T08:09:11;29.73;;;4.97;;
75772;SDS011;64381;0.000;0.000;2022-10-31T08:11:36;27.67;;;5.13;;
75772;SDS011;64381;0.000;0.000;2022-10-31T08:14:01;22.97;;;4.77;;
75772;SDS011;64381;0.000;0.000;2022-10-31T08:16:26;33.93;;;5.50;;
75772;SDS011;64381;0.000;0.000;2022-10-31T08:18:52;22.37;;;4.97;;
75772;SDS011;64381;0.000;0.000;2022-10-31T08:21:17;22.00;;;5.40;;
75772;SDS011;64381;0.000;0.000;2022-10-31T08:23:42;24.37;;;4.30;;
75772;SDS011;64381;0.000;0.000;2022-10-31T08:26:07;20.57;;;5.23;;
75772;SDS011;64381;0.000;0.000;2022-10-31T08:28:32;25.77;;;5.40;;
75772;SDS011;64381;0.000;0.000;2022-10-31T08:30:58;17.73;;;4.83;;
75772;SDS011;64381;0.000;0.000;2022-10-31T08:33:23;21.73;;;5.27;;
75772;SDS011;64381;0.000;0.000;2022-10-31T08:35:49;20.20;;;5.00;;
75772;SDS011;64381;0.000;0.000;2022-10-31T08:38:14;22.30;;;4.13;;
75772;SDS011;64381;0.000;0.000;2022-10-31T08:40:39;14.37;;;4.27;;
75772;SDS011;64381;0.000;0.000;2022-10-31T08:43:08;17.03;;;4.50;;
75772;SDS011;64381;0.000;0.000;2022-10-31T08:45:36;12.45;;;4.10;;
75772;SDS011;64381;0.000;0.000;2022-10-31T08:48:03;21.83;;;4.37;;
75772;SDS011;64381;0.000;0.000;2022-10-31T08:50:30;15.48;;;4.25;;
75772;SDS011;64381;0.000;0.000;2022-10-31T08:53:30;15.88;;;4.97;;
75772;SDS011;64381;0.000;0.000;2022-10-31T08:55:48;18.80;;;4.87;;
75772;SDS011;64381;0.000;0.000;2022-10-31T08:58:17;16.73;;;4.73;;
75772;SDS011;64381;0.000;0.000;2022-10-31T09:00:45;13.68;;;4.28;;
75772;SDS011;64381;0.000;0.000;2022-10-31T09:03:12;15.45;;;4.20;;
75772;SDS011;64381;0.000;0.000;2022-10-31T09:05:39;14.48;;;4.25;;
75772;SDS011;64381;0.000;0.000;2022-10-31T09:08:05;12.93;;;3.90;;
75772;SDS011;64381;0.000;0.000;2022-10-31T09:10:32;16.00;;;4.68;;
75772;SDS011;64381;0.000;0.000;2022-10-31T09:13:09;13.20;;;4.00;;
75772;SDS011;64381;0.000;0.000;2022-10-31T09:15:37;18.98;;;5.32;;
75772;SDS011;64381;0.000;0.000;2022-10-31T09:18:07;11.93;;;3.72;;
75772;SDS011;64381;0.000;0.000;2022-10-31T09:20:33;13.88;;;4.30;;
75772;SDS011;64381;0.000;0.000;2022-10-31T09:23:00;17.88;;;4.40;;
75772;SDS011;64381;0.000;0.000;2022-10-31T09:25:30;12.88;;;4.18;;
75772;SDS011;64381;0.000;0.000;2022-10-31T09:27:57;13.67;;;4.17;;
75772;SDS011;64381;0.000;0.000;2022-10-31T09:30:23;9.15;;;3.67;;
75772;SDS011;64381;0.000;0.000;2022-10-31T09:32:54;14.20;;;4.10;;
75772;SDS011;64381;0.000;0.000;2022-10-31T09:35:23;16.63;;;4.40;;
75772;SDS011;64381;0.000;0.000;2022-10-31T09:38:10;12.03;;;4.30;;
75772;SDS011;64381;0.000;0.000;2022-10-31T09:40:39;12.88;;;4.13;;
75772;SDS011;64381;0.000;0.000;2022-10-31T09:45:48;13.70;;;4.43;;
75772;SDS011;64381;0.000;0.000;2022-10-31T09:51:29;10.57;;;4.07;;
75772;SDS011;64381;0.000;0.000;2022-10-31T09:54:02;14.35;;;4.30;;
75772;SDS011;64381;0.000;0.000;2022-10-31T09:56:30;11.63;;;4.65;;
75772;SDS011;64381;0.000;0.000;2022-10-31T09:58:58;13.23;;;5.07;;
75772;SDS011;64381;0.000;0.000;2022-10-31T10:06:56;13.48;;;4.90;;
75772;SDS011;64381;0.000;0.000;2022-10-31T10:09:24;14.48;;;4.72;;
75772;SDS011;64381;0.000;0.000;2022-10-31T10:11:57;13.33;;;4.90;;
75772;SDS011;64381;0.000;0.000;2022-10-31T10:17:06;11.38;;;4.90;;
75772;SDS011;64381;0.000;0.000;2022-10-31T10:22:43;14.25;;;5.18;;
75772;SDS011;64381;0.000;0.000;2022-10-31T10:25:21;12.90;;;4.70;;
75772;SDS011;64381;0.000;0.000;2022-10-31T10:28:06;12.73;;;5.00;;
75772;SDS011;64381;0.000;0.000;2022-10-31T10:33:27;12.43;;;4.90;;
75772;SDS011;64381;0.000;0.000;2022-10-31T10:36:00;14.13;;;6.25;;
75772;SDS011;64381;0.000;0.000;2022-10-31T10:38:41;13.60;;;6.30;;
75772;SDS011;64381;0.000;0.000;2022-10-31T10:41:16;18.60;;;7.90;;
75772;SDS011;64381;0.000;0.000;2022-10-31T10:43:43;16.27;;;7.78;;
75772;SDS011;64381;0.000;0.000;2022-10-31T10:51:22;14.60;;;7.30;;
75772;SDS011;64381;0.000;0.000;2022-10-31T10:54:06;15.27;;;7.45;;
75772;SDS011;64381;0.000;0.000;2022-10-31T10:59:25;16.93;;;7.67;;
75772;SDS011;64381;0.000;0.000;2022-10-31T11:01:51;16.70;;;7.15;;
75772;SDS011;64381;0.000;0.000;2022-10-31T11:07:05;17.63;;;7.20;;
75772;SDS011;64381;0.000;0.000;2022-10-31T11:09:32;20.88;;;7.80;;
75772;SDS011;64381;0.000;0.000;2022-10-31T11:11:59;13.85;;;6.80;;
75772;SDS011;64381;0.000;0.000;2022-10-31T11:14:25;15.77;;;7.18;;
75772;SDS011;64381;0.000;0.000;2022-10-31T11:17:06;13.85;;;7.28;;
75772;SDS011;64381;0.000;0.000;2022-10-31T11:19:34;27.13;;;5.80;;
75772;SDS011;64381;0.000;0.000;2022-10-31T11:22:13;28.40;;;6.70;;
75772;SDS011;64381;0.000;0.000;2022-10-31T11:24:41;33.87;;;6.57;;
75772;SDS011;64381;0.000;0.000;2022-10-31T11:27:16;31.73;;;8.68;;
75772;SDS011;64381;0.000;0.000;2022-10-31T11:29:45;37.17;;;7.35;;
75772;SDS011;64381;0.000;0.000;2022-10-31T11:32:16;24.50;;;6.93;;
75772;SDS011;64381;0.000;0.000;2022-10-31T11:34:45;27.33;;;7.20;;
75772;SDS011;64381;0.000;0.000;2022-10-31T11:37:15;27.27;;;7.00;;
75772;SDS011;64381;0.000;0.000;2022-10-31T11:39:44;22.83;;;6.85;;
75772;SDS011;64381;0.000;0.000;2022-10-31T11:42:12;24.80;;;7.28;;
75772;SDS011;64381;0.000;0.000;2022-10-31T11:44:40;23.88;;;7.20;;
75772;SDS011;64381;0.000;0.000;2022-10-31T11:47:09;20.47;;;6.23;;
75772;SDS011;64381;0.000;0.000;2022-10-31T11:49:39;25.70;;;7.65;;
75772;SDS011;64381;0.000;0.000;2022-10-31T12:00:26;20.67;;;7.97;;
75772;SDS011;64381;0.000;0.000;2022-10-31T12:08:33;23.63;;;6.47;;
75772;SDS011;64381;0.000;0.000;2022-10-31T12:14:22;20.67;;;7.23;;
75772;SDS011;64381;0.000;0.000;2022-10-31T12:19:24;19.93;;;7.27;;
75772;SDS011;64381;0.000;0.000;2022-10-31T12:27:53;20.90;;;6.43;;
75772;SDS011;64381;0.000;0.000;2022-10-31T12:36:11;19.77;;;7.50;;
75772;SDS011;64381;0.000;0.000;2022-10-31T12:41:24;14.40;;;6.30;;
75772;SDS011;64381;0.000;0.000;2022-10-31T12:58:22;14.55;;;5.78;;
75772;SDS011;64381;0.000;0.000;2022-10-31T13:00:54;14.63;;;6.23;;
75772;SDS011;64381;0.000;0.000;2022-10-31T13:03:32;18.33;;;6.22;;
75772;SDS011;64381;0.000;0.000;2022-10-31T13:06:05;18.17;;;6.18;;
75772;SDS011;64381;0.000;0.000;2022-10-31T13:11:10;16.27;;;6.60;;
75772;SDS011;64381;0.000;0.000;2022-10-31T13:13:42;17.17;;;6.80;;
75772;SDS011;64381;0.000;0.000;2022-10-31T13:16:34;17.08;;;6.38;;
75772;SDS011;64381;0.000;0.000;2022-10-31T13:19:05;17.00;;;7.25;;
75772;SDS011;64381;0.000;0.000;2022-10-31T13:21:45;13.88;;;6.80;;
75772;SDS011;64381;0.000;0.000;2022-10-31T13:24:18;17.35;;;7.22;;
75772;SDS011;64381;0.000;0.000;2022-10-31T13:26:52;16.93;;;7.30;;
75772;SDS011;64381;0.000;0.000;2022-10-31T13:32:11;16.13;;;6.88;;
75772;SDS011;64381;0.000;0.000;2022-10-31T13:34:40;17.53;;;7.97;;
75772;SDS011;64381;0.000;0.000;2022-10-31T13:37:17;15.90;;;7.53;;
75772;SDS011;64381;0.000;0.000;2022-10-31T13:43:12;19.80;;;7.85;;
75772;SDS011;64381;0.000;0.000;2022-10-31T13:45:49;24.13;;;8.93;;
75772;SDS011;64381;0.000;0.000;2022-10-31T13:48:28;22.95;;;10.00;;
75772;SDS011;64381;0.000;0.000;2022-10-31T13:51:00;23.98;;;10.80;;
75772;SDS011;64381;0.000;0.000;2022-10-31T13:56:25;24.05;;;10.60;;
75772;SDS011;64381;0.000;0.000;2022-10-31T13:59:35;24.17;;;10.70;;
75772;SDS011;64381;0.000;0.000;2022-10-31T14:01:47;21.08;;;11.00;;
75772;SDS011;64381;0.000;0.000;2022-10-31T14:04:14;22.35;;;10.52;;
75772;SDS011;64381;0.000;0.000;2022-10-31T14:09:21;21.20;;;10.57;;
75772;SDS011;64381;0.000;0.000;2022-10-31T14:11:47;21.77;;;10.87;;
75772;SDS011;64381;0.000;0.000;2022-10-31T14:14:13;19.73;;;10.23;;
75772;SDS011;64381;0.000;0.000;2022-10-31T14:16:39;20.20;;;11.30;;
75772;SDS011;64381;0.000;0.000;2022-10-31T14:19:17;20.95;;;10.23;;
75772;SDS011;64381;0.000;0.000;2022-10-31T14:21:45;19.47;;;10.60;;
75772;SDS011;64381;0.000;0.000;2022-10-31T14:29:27;19.33;;;9.85;;
75772;SDS011;64381;0.000;0.000;2022-10-31T14:34:32;17.90;;;9.80;;
75772;SDS011;64381;0.000;0.000;2022-10-31T14:37:19;17.83;;;9.40;;
75772;SDS011;64381;0.000;0.000;2022-10-31T14:50:51;18.48;;;8.98;;
75772;SDS011;64381;0.000;0.000;2022-10-31T14:55:52;16.33;;;8.75;;
75772;SDS011;64381;0.000;0.000;2022-10-31T14:58:21;17.02;;;9.15;;
75772;SDS011;64381;0.000;0.000;2022-10-31T15:00:51;19.23;;;8.93;;
75772;SDS011;64381;0.000;0.000;2022-10-31T15:03:42;15.90;;;9.18;;
75772;SDS011;64381;0.000;0.000;2022-10-31T15:06:15;17.27;;;8.95;;
75772;SDS011;64381;0.000;0.000;2022-10-31T15:08:44;16.45;;;8.85;;
75772;SDS011;64381;0.000;0.000;2022-10-31T15:11:20;17.42;;;8.98;;
75772;SDS011;64381;0.000;0.000;2022-10-31T15:13:53;18.13;;;8.60;;
75772;SDS011;64381;0.000;0.000;2022-10-31T15:16:24;14.40;;;7.95;;
75772;SDS011;64381;0.000;0.000;2022-10-31T15:19:00;15.82;;;8.70;;
75772;SDS011;64381;0.000;0.000;2022-10-31T15:21:29;15.45;;;8.13;;
75772;SDS011;64381;0.000;0.000;2022-10-31T15:23:56;16.42;;;8.35;;
75772;SDS011;64381;0.000;0.000;2022-10-31T15:26:26;17.27;;;8.53;;
75772;SDS011;64381;0.000;0.000;2022-10-31T15:28:59;14.55;;;7.93;;
75772;SDS011;64381;0.000;0.000;2022-10-31T15:31:26;14.20;;;7.75;;
75772;SDS011;64381;0.000;0.000;2022-10-31T15:33:51;14.70;;;8.17;;
75772;SDS011;64381;0.000;0.000;2022-10-31T15:36:19;15.32;;;8.65;;
75772;SDS011;64381;0.000;0.000;2022-10-31T15:38:46;13.50;;;8.13;;
75772;SDS011;64381;0.000;0.000;2022-10-31T15:44:03;13.05;;;7.32;;
75772;SDS011;64381;0.000;0.000;2022-10-31T15:46:37;14.32;;;7.88;;
75772;SDS011;64381;0.000;0.000;2022-10-31T15:49:02;13.77;;;7.77;;
75772;SDS011;64381;0.000;0.000;2022-10-31T15:51:28;13.43;;;7.47;;
75772;SDS011;64381;0.000;0.000;2022-10-31T15:53:57;13.73;;;7.43;;
75772;SDS011;64381;0.000;0.000;2022-10-31T15:56:28;12.97;;;7.17;;
75772;SDS011;64381;0.000;0.000;2022-10-31T15:58:56;12.07;;;7.50;;
75772;SDS011;64381;0.000;0.000;2022-10-31T16:01:27;13.45;;;7.25;;
75772;SDS011;64381;0.000;0.000;2022-10-31T16:06:37;14.60;;;7.85;;
75772;SDS011;64381;0.000;0.000;2022-10-31T16:09:03;14.30;;;6.87;;
75772;SDS011;64381;0.000;0.000;2022-10-31T16:11:44;11.85;;;6.95;;
75772;SDS011;64381;0.000;0.000;2022-10-31T16:16:41;14.53;;;6.90;;
75772;SDS011;64381;0.000;0.000;2022-10-31T16:19:14;14.35;;;7.20;;
75772;SDS011;64381;0.000;0.000;2022-10-31T16:21:44;13.03;;;6.80;;
75772;SDS011;64381;0.000;0.000;2022-10-31T16:26:48;13.30;;;7.63;;
75772;SDS011;64381;0.000;0.000;2022-10-31T16:29:25;11.67;;;6.53;;
75772;SDS011;64381;0.000;0.000;2022-10-31T16:31:57;11.48;;;6.32;;
75772;SDS011;64381;0.000;0.000;2022-10-31T16:34:23;12.30;;;7.03;;
75772;SDS011;64381;0.000;0.000;2022-10-31T16:36:48;13.23;;;6.93;;
75772;SDS011;64381;0.000;0.000;2022-10-31T16:39:13;11.23;;;6.60;;
75772;SDS011;64381;0.000;0.000;2022-10-31T16:41:40;10.60;;;6.73;;
75772;SDS011;64381;0.000;0.000;2022-10-31T16:44:40;12.40;;;6.63;;
75772;SDS011;64381;0.000;0.000;2022-10-31T16:49:33;11.02;;;6.20;;
75772;SDS011;64381;0.000;0.000;2022-10-31T16:51:58;11.93;;;6.27;;
75772;SDS011;64381;0.000;0.000;2022-10-31T16:54:23;12.23;;;6.30;;
75772;SDS011;64381;0.000;0.000;2022-10-31T16:56:49;12.30;;;6.63;;
75772;SDS011;64381;0.000;0.000;2022-10-31T16:59:14;12.73;;;6.77;;
75772;SDS011;64381;0.000;0.000;2022-10-31T17:01:39;11.50;;;6.53;;
75772;SDS011;64381;0.000;0.000;2022-10-31T17:04:05;10.45;;;6.10;;
75772;SDS011;64381;0.000;0.000;2022-10-31T17:06:32;12.00;;;6.45;;
75772;SDS011;64381;0.000;0.000;2022-10-31T17:08:57;11.37;;;6.07;;
75772;SDS011;64381;0.000;0.000;2022-10-31T17:11:23;10.80;;;6.17;;
75772;SDS011;64381;0.000;0.000;2022-10-31T17:13:51;11.02;;;5.57;;
75772;SDS011;64381;0.000;0.000;2022-10-31T17:16:18;11.13;;;6.28;;
75772;SDS011;64381;0.000;0.000;2022-10-31T17:18:43;10.90;;;5.90;;
75772;SDS011;64381;0.000;0.000;2022-10-31T17:21:09;11.97;;;6.03;;
75772;SDS011;64381;0.000;0.000;2022-10-31T17:23:41;9.63;;;5.87;;
75772;SDS011;64381;0.000;0.000;2022-10-31T17:26:06;9.97;;;5.83;;
75772;SDS011;64381;0.000;0.000;2022-10-31T17:28:32;12.02;;;5.60;;